KIKK/IKK METAR and TAF weather

Enter ICAO airport designator
Station Type Date Time Source
KIKK METAR 2020/11/27 13:56 UTC NOAA

KIKK 271356Z AUTO 20003KT 3SM BR OVC120 01/01 A3013 RMK AO2


Station Type Date Time Source
KIKK Decoded METAR 2020/11/27 13:56 UTC NOAA

Kankakee, Greater Kankakee Airport, IL, United States (KIKK) 41-04-17N 087-50-47W
Nov 27, 2020 - 08:56 AM EST / 2020.11.27 1356 UTC
Wind: from the SSW (200 degrees) at 3 MPH (3 KT):0
Visibility: 3 mile(s):0
Sky conditions: overcast
Weather: mist
Temperature: 33 F (1 C)
Dew Point: 33 F (1 C)
Relative Humidity: 100%
Pressure (altimeter): 30.13 in. Hg (1020 hPa)
ob: KIKK 271356Z AUTO 20003KT 3SM BR OVC120 01/01 A3013 RMK AO2
cycle: 14

Station Type Date Time Source
KIKK TAF UTC NOAA

Error!

Example: see airport list